createdAt,value
2024-01-24T00:01:11.973Z,2.28
2024-01-24T00:03:38.895Z,3.38
2024-01-24T00:06:06.343Z,0.70
2024-01-24T00:08:34.292Z,3.83
2024-01-24T00:11:02.912Z,4.70
2024-01-24T00:13:29.777Z,2.33
2024-01-24T00:15:56.697Z,1.48
2024-01-24T00:18:25.048Z,1.95
2024-01-24T00:20:55.397Z,1.98
2024-01-24T00:23:24.084Z,1.85
2024-01-24T00:25:50.951Z,3.80
2024-01-24T00:28:17.893Z,2.92
2024-01-24T00:30:45.148Z,1.90
2024-01-24T00:33:12.237Z,1.23
2024-01-24T00:35:40.480Z,0.75
2024-01-24T00:38:07.344Z,1.65
2024-01-24T00:40:34.178Z,1.95
2024-01-24T00:43:02.344Z,1.42
2024-01-24T00:45:29.251Z,1.85
2024-01-24T00:47:56.535Z,2.35
2024-01-24T00:50:23.463Z,1.10
2024-01-24T00:52:53.446Z,2.35
2024-01-24T00:55:20.487Z,1.58
2024-01-24T00:57:47.454Z,0.45
2024-01-24T01:00:15.852Z,1.80
2024-01-24T01:02:44.339Z,1.27
2024-01-24T01:05:13.647Z,0.70
2024-01-24T01:07:40.730Z,1.33
2024-01-24T01:10:11.062Z,0.70
2024-01-24T01:12:38.114Z,1.30
2024-01-24T01:15:06.147Z,1.38
2024-01-24T01:17:34.245Z,1.75
2024-01-24T01:20:01.827Z,4.15
2024-01-24T01:22:28.808Z,3.20
2024-01-24T01:24:57.593Z,2.88
2024-01-24T01:27:26.966Z,5.85
2024-01-24T01:29:53.933Z,2.15
2024-01-24T01:32:22.076Z,2.67
2024-01-24T01:34:50.330Z,3.60
2024-01-24T01:37:20.456Z,8.82
2024-01-24T01:39:47.616Z,1.60
2024-01-24T01:42:16.584Z,0.98
2024-01-24T01:44:49.420Z,5.05
2024-01-24T01:47:17.466Z,7.97
2024-01-24T01:49:45.977Z,4.70
2024-01-24T01:52:23.912Z,2.60
2024-01-24T01:54:54.654Z,3.08
2024-01-24T01:57:22.360Z,1.77
2024-01-24T01:59:53.865Z,6.03
2024-01-24T02:02:21.054Z,3.47
2024-01-24T02:04:48.014Z,2.20
2024-01-24T02:07:16.611Z,6.85
2024-01-24T02:09:46.680Z,3.38
2024-01-24T02:12:13.544Z,8.40
2024-01-24T02:14:43.125Z,4.75
2024-01-24T02:17:11.348Z,5.03
2024-01-24T02:19:38.526Z,9.65
2024-01-24T02:22:05.397Z,3.58
2024-01-24T02:24:33.647Z,3.70
2024-01-24T02:27:00.499Z,8.35
2024-01-24T02:29:27.324Z,7.13
2024-01-24T02:31:54.179Z,13.48
2024-01-24T02:34:21.110Z,8.98
2024-01-24T02:36:48.125Z,10.00
2024-01-24T02:39:15.101Z,12.77
2024-01-24T02:41:43.373Z,10.00
2024-01-24T02:44:10.930Z,9.00
2024-01-24T02:46:37.855Z,10.63
2024-01-24T02:49:04.934Z,18.80
2024-01-24T02:51:31.794Z,13.43
2024-01-24T02:53:58.662Z,10.15
2024-01-24T02:56:25.781Z,15.25
2024-01-24T02:58:54.091Z,16.33
2024-01-24T03:01:20.971Z,19.08
2024-01-24T03:03:48.244Z,24.35
2024-01-24T03:06:15.439Z,19.55
2024-01-24T03:08:49.867Z,22.42
2024-01-24T03:11:17.022Z,9.95
2024-01-24T03:13:44.008Z,15.68
2024-01-24T03:16:12.365Z,20.42
2024-01-24T03:18:40.299Z,19.42
2024-01-24T03:21:10.148Z,15.05
2024-01-24T03:23:40.224Z,23.83
2024-01-24T03:26:07.732Z,26.75
2024-01-24T03:28:34.882Z,15.77
2024-01-24T03:31:02.160Z,27.73
2024-01-24T03:33:31.037Z,22.85
2024-01-24T03:35:58.021Z,12.90
2024-01-24T03:38:24.898Z,15.95
2024-01-24T03:40:51.791Z,19.30
2024-01-24T03:43:18.864Z,30.33
2024-01-24T03:45:45.798Z,31.88
2024-01-24T03:48:12.870Z,23.08
2024-01-24T03:50:41.325Z,22.90
2024-01-24T03:53:08.143Z,23.30
2024-01-24T03:55:34.994Z,36.13
2024-01-24T03:58:01.903Z,25.02
2024-01-24T04:00:29.268Z,29.80
2024-01-24T04:02:56.274Z,32.50
2024-01-24T04:05:23.090Z,27.38
2024-01-24T04:07:51.439Z,34.88
2024-01-24T04:10:18.303Z,37.35
2024-01-24T04:12:45.184Z,31.90
2024-01-24T04:15:12.322Z,28.33
2024-01-24T04:17:39.223Z,35.78
2024-01-24T04:20:07.375Z,26.30
2024-01-24T04:22:34.271Z,32.75
2024-01-24T04:25:02.702Z,22.08
2024-01-24T04:27:29.604Z,28.23
2024-01-24T04:29:56.452Z,35.28
2024-01-24T04:32:23.343Z,35.75
2024-01-24T04:34:50.314Z,29.58
2024-01-24T04:37:17.232Z,40.85
2024-01-24T04:39:44.151Z,26.98
2024-01-24T04:42:16.609Z,32.60
2024-01-24T04:44:44.739Z,32.90
2024-01-24T04:47:14.785Z,31.95
2024-01-24T04:49:45.237Z,45.67
2024-01-24T04:52:13.283Z,37.40
2024-01-24T04:54:40.185Z,28.85
2024-01-24T04:57:07.211Z,31.50
2024-01-24T04:59:46.266Z,38.08
2024-01-24T05:02:21.181Z,44.78
2024-01-24T05:04:49.029Z,31.40
2024-01-24T05:07:16.371Z,28.60
2024-01-24T05:09:43.398Z,61.05
2024-01-24T05:12:11.153Z,47.25
2024-01-24T05:14:39.612Z,36.70
2024-01-24T05:17:06.557Z,31.90
2024-01-24T05:19:33.941Z,30.88
2024-01-24T05:22:01.081Z,45.40
2024-01-24T05:24:28.091Z,37.72
2024-01-24T05:27:22.294Z,43.05
2024-01-24T05:29:50.540Z,52.25
2024-01-24T05:32:17.482Z,33.20
2024-01-24T05:34:44.470Z,37.33
2024-01-24T05:37:11.659Z,50.03
2024-01-24T05:39:38.638Z,49.90
2024-01-24T05:42:05.986Z,36.17
2024-01-24T05:44:32.809Z,46.97
2024-01-24T05:47:01.114Z,47.38
2024-01-24T05:49:28.098Z,57.65
2024-01-24T05:51:55.162Z,30.33
2024-01-24T05:54:22.489Z,34.20
2024-01-24T05:56:49.443Z,40.63
2024-01-24T05:59:16.333Z,52.90
2024-01-24T06:01:44.660Z,50.00
2024-01-24T06:04:13.283Z,35.13
2024-01-24T06:06:40.440Z,38.30
2024-01-24T06:09:07.394Z,52.33
2024-01-24T06:11:34.676Z,44.85
2024-01-24T06:14:01.583Z,55.58
2024-01-24T06:16:28.481Z,49.28
2024-01-24T06:18:55.508Z,41.38
2024-01-24T06:21:23.829Z,34.42
2024-01-24T06:23:50.910Z,47.65
2024-01-24T06:26:17.841Z,37.70
2024-01-24T06:28:44.715Z,43.15
2024-01-24T06:31:11.750Z,45.28
2024-01-24T06:33:38.679Z,53.30
2024-01-24T06:36:05.851Z,46.10
2024-01-24T06:38:34.071Z,34.30
2024-01-24T06:41:00.916Z,45.33
2024-01-24T06:43:27.843Z,40.35
2024-01-24T06:45:55.536Z,51.28
2024-01-24T06:48:22.608Z,50.80
2024-01-24T06:50:49.640Z,42.22
2024-01-24T06:53:16.608Z,37.53
2024-01-24T06:55:45.379Z,30.60
2024-01-24T06:58:12.294Z,55.17
2024-01-24T07:00:39.193Z,42.85
2024-01-24T07:03:06.171Z,52.42
2024-01-24T07:05:33.169Z,43.25
2024-01-24T07:08:00.150Z,62.28
2024-01-24T07:10:26.995Z,52.10
2024-01-24T07:12:56.972Z,57.28
2024-01-24T07:15:23.927Z,40.35
2024-01-24T07:17:50.936Z,29.50
2024-01-24T07:20:19.750Z,47.40
2024-01-24T07:22:46.872Z,42.55
2024-01-24T07:25:13.923Z,42.65
2024-01-24T07:27:41.167Z,49.40
2024-01-24T07:30:10.110Z,70.75
2024-01-24T07:32:40.799Z,45.20
2024-01-24T07:35:09.336Z,42.08
2024-01-24T07:37:36.322Z,38.67
2024-01-24T07:40:03.704Z,40.10
2024-01-24T07:42:30.917Z,38.03
2024-01-24T07:44:58.218Z,52.10
2024-01-24T07:47:26.751Z,54.95
2024-01-24T07:49:54.344Z,42.15
2024-01-24T07:52:29.024Z,45.72
2024-01-24T07:55:04.484Z,49.60
2024-01-24T07:57:31.582Z,43.00
2024-01-24T07:59:59.316Z,46.72
2024-01-24T08:02:27.871Z,37.63
2024-01-24T08:04:55.198Z,60.53
2024-01-24T08:07:22.210Z,45.72
2024-01-24T08:09:49.404Z,45.38
2024-01-24T08:12:16.492Z,36.28
2024-01-24T08:14:43.996Z,41.85
2024-01-24T08:17:15.206Z,46.55
2024-01-24T08:19:43.464Z,34.25
2024-01-24T08:22:11.165Z,52.63
2024-01-24T08:24:38.072Z,46.90
2024-01-24T08:27:05.276Z,52.50
2024-01-24T08:29:36.955Z,53.80
2024-01-24T08:32:06.023Z,44.33
2024-01-24T08:34:33.980Z,59.65
2024-01-24T08:37:02.678Z,45.95
2024-01-24T08:39:29.631Z,50.28
2024-01-24T08:41:56.691Z,39.20
2024-01-24T08:44:23.589Z,47.65
2024-01-24T08:46:52.031Z,37.33
2024-01-24T08:49:19.489Z,45.33
2024-01-24T08:51:46.654Z,58.38
2024-01-24T08:54:15.117Z,76.07
2024-01-24T08:56:42.204Z,38.83
2024-01-24T08:59:09.147Z,47.28
2024-01-24T09:01:36.134Z,35.72
2024-01-24T09:04:03.412Z,46.45
2024-01-24T09:06:30.381Z,37.05
2024-01-24T09:08:57.578Z,49.53
2024-01-24T09:11:31.564Z,48.80
2024-01-24T09:14:05.106Z,45.08
2024-01-24T09:16:32.290Z,37.40
2024-01-24T09:18:59.509Z,36.90
2024-01-24T09:21:27.064Z,48.53
2024-01-24T09:23:54.115Z,44.20
2024-01-24T09:26:21.262Z,40.67
2024-01-24T09:28:49.508Z,49.80
2024-01-24T09:31:16.429Z,40.58
2024-01-24T09:33:43.432Z,51.22
2024-01-24T09:36:11.135Z,45.97
2024-01-24T09:38:38.051Z,34.65
2024-01-24T09:41:14.850Z,33.28
2024-01-24T09:43:42.477Z,42.95
2024-01-24T09:46:16.866Z,52.03
2024-01-24T09:48:47.621Z,47.17
2024-01-24T09:51:15.179Z,28.27
2024-01-24T09:53:45.975Z,43.30
2024-01-24T09:56:14.294Z,48.88
2024-01-24T09:58:41.330Z,57.10
2024-01-24T10:01:14.496Z,48.50
2024-01-24T10:03:42.435Z,49.67
2024-01-24T10:06:11.284Z,65.00
2024-01-24T10:08:38.217Z,39.60
2024-01-24T10:11:05.283Z,42.47
2024-01-24T10:13:32.532Z,29.00
2024-01-24T10:16:01.005Z,43.45
2024-01-24T10:18:30.227Z,31.30
2024-01-24T10:20:57.466Z,32.60
2024-01-24T10:23:24.478Z,36.53
2024-01-24T10:25:51.641Z,43.83
2024-01-24T10:28:19.023Z,33.78
2024-01-24T10:30:48.413Z,51.15
2024-01-24T10:33:19.105Z,32.97
2024-01-24T10:35:48.173Z,49.65
2024-01-24T10:38:23.347Z,32.33
2024-01-24T10:40:59.001Z,38.42
2024-01-24T10:43:26.778Z,35.88
2024-01-24T10:45:54.997Z,39.50
2024-01-24T10:48:22.346Z,24.80
2024-01-24T10:50:51.877Z,30.17
2024-01-24T10:53:21.742Z,81.10
2024-01-24T10:55:51.743Z,33.50
2024-01-24T10:58:20.275Z,35.17
2024-01-24T11:00:47.481Z,47.42
2024-01-24T11:03:15.445Z,28.15
2024-01-24T11:05:48.482Z,24.38
2024-01-24T11:08:35.624Z,53.72
2024-01-24T11:11:14.035Z,44.53
2024-01-24T11:16:34.169Z,33.22
2024-01-24T11:19:21.035Z,28.98
2024-01-24T11:21:48.350Z,27.05
2024-01-24T11:24:51.342Z,34.13
2024-01-24T11:27:42.317Z,39.95
2024-01-24T11:30:20.732Z,30.40
2024-01-24T11:33:02.133Z,29.65
2024-01-24T11:35:33.642Z,22.17
2024-01-24T11:40:36.259Z,20.25
2024-01-24T11:43:05.080Z,29.65
2024-01-24T11:45:32.250Z,26.50
2024-01-24T11:47:59.254Z,33.15
2024-01-24T11:50:26.677Z,29.60
2024-01-24T11:52:59.741Z,45.58
2024-01-24T11:55:26.843Z,32.85
2024-01-24T11:57:56.134Z,38.22
2024-01-24T12:04:35.862Z,31.98
2024-01-24T12:07:03.468Z,32.08
2024-01-24T12:09:30.661Z,22.38
2024-01-24T12:11:57.787Z,20.65
2024-01-24T12:14:27.629Z,23.20
2024-01-24T12:16:57.131Z,19.90
2024-01-24T12:19:25.285Z,25.08
2024-01-24T12:21:53.277Z,34.58
2024-01-24T12:24:20.864Z,28.98
2024-01-24T12:26:52.245Z,21.65
2024-01-24T12:29:22.290Z,31.08
2024-01-24T12:31:50.945Z,27.63
2024-01-24T12:34:21.813Z,40.58
2024-01-24T12:36:49.272Z,31.30
2024-01-24T12:39:16.450Z,28.67
2024-01-24T12:41:45.158Z,30.05
2024-01-24T12:44:13.304Z,33.50
2024-01-24T12:46:40.683Z,26.17
2024-01-24T12:49:09.074Z,35.60
2024-01-24T12:51:41.285Z,40.75
2024-01-24T12:54:08.415Z,35.97
2024-01-24T12:56:35.375Z,19.20
2024-01-24T12:59:02.474Z,28.02
2024-01-24T13:01:29.690Z,31.38
2024-01-24T13:03:56.977Z,31.42
2024-01-24T13:06:25.692Z,31.45
2024-01-24T13:08:52.891Z,35.40
2024-01-24T13:11:19.827Z,23.10
2024-01-24T13:13:46.765Z,39.92
2024-01-24T13:20:57.265Z,38.97
2024-01-24T13:56:47.738Z,39.47
2024-01-24T13:59:15.007Z,34.53
2024-01-24T14:01:45.802Z,27.17
2024-01-24T14:04:18.207Z,35.28
2024-01-24T14:06:45.509Z,38.70
2024-01-24T14:09:12.468Z,30.35
2024-01-24T14:11:40.451Z,33.50
2024-01-24T14:14:08.346Z,33.97
2024-01-24T14:16:35.812Z,52.95
2024-01-24T14:19:02.975Z,34.60
2024-01-24T14:21:33.124Z,37.10
2024-01-24T14:28:02.633Z,30.77
2024-01-24T16:14:43.278Z,33.75
2024-01-24T16:17:26.925Z,31.58
2024-01-24T16:19:57.115Z,46.72
2024-01-24T16:22:36.577Z,44.55
2024-01-24T16:25:15.993Z,35.10
2024-01-24T16:27:45.759Z,39.80
2024-01-24T16:30:14.596Z,39.55
2024-01-24T16:32:41.671Z,39.83
2024-01-24T16:35:13.330Z,33.67
2024-01-24T16:37:41.145Z,36.28
2024-01-24T16:40:09.575Z,29.13
2024-01-24T16:42:37.370Z,39.92
2024-01-24T16:45:07.163Z,34.65
2024-01-24T16:47:37.889Z,38.60
2024-01-24T16:50:07.130Z,47.10
2024-01-24T16:52:34.314Z,32.63
2024-01-24T16:55:01.621Z,39.05
2024-01-24T16:57:28.888Z,45.53
2024-01-24T16:59:58.336Z,29.65
2024-01-24T17:02:34.180Z,34.17
2024-01-24T17:05:07.201Z,50.17
2024-01-24T17:07:34.561Z,31.83
2024-01-24T17:10:01.567Z,42.03
2024-01-24T17:12:29.274Z,39.72
2024-01-24T17:14:56.826Z,45.75
2024-01-24T17:17:23.784Z,32.83
2024-01-24T17:19:50.819Z,36.88
2024-01-24T17:22:19.116Z,19.95
2024-01-24T17:24:46.006Z,31.27
2024-01-24T17:27:12.931Z,64.28
2024-01-24T17:29:40.231Z,45.28
2024-01-24T17:32:07.393Z,45.30
2024-01-24T17:34:34.400Z,40.85
2024-01-24T17:37:01.747Z,39.78
2024-01-24T17:39:30.228Z,50.58
2024-01-24T17:41:57.959Z,44.72
2024-01-24T17:44:24.879Z,42.78
2024-01-24T17:46:51.789Z,34.60
2024-01-24T17:49:19.024Z,29.75
2024-01-24T17:51:46.197Z,28.98
2024-01-24T17:54:13.186Z,44.05
2024-01-24T17:56:41.619Z,34.55
2024-01-24T17:59:10.116Z,37.97
2024-01-24T18:01:39.468Z,68.28
2024-01-24T18:04:06.997Z,58.03
2024-01-24T18:06:34.159Z,50.20
2024-01-24T18:09:01.243Z,37.58
2024-01-24T18:11:28.235Z,35.35
2024-01-24T18:13:56.509Z,54.00
2024-01-24T18:16:24.417Z,36.75
2024-01-24T18:18:52.260Z,34.33
2024-01-24T18:21:19.377Z,33.85
2024-01-24T18:23:46.226Z,48.55
2024-01-24T18:26:13.182Z,31.15
2024-01-24T18:28:40.178Z,32.78
2024-01-24T18:31:08.562Z,29.48
2024-01-24T18:33:35.705Z,21.02
2024-01-24T18:36:04.889Z,31.35
2024-01-24T18:38:31.858Z,40.88
2024-01-24T18:40:58.920Z,31.55
2024-01-24T18:43:25.922Z,31.92
2024-01-24T18:45:52.925Z,54.22
2024-01-24T18:48:21.598Z,35.83
2024-01-24T18:50:48.746Z,38.15
2024-01-24T18:53:19.132Z,39.20
2024-01-24T18:56:06.639Z,28.65
2024-01-24T18:58:34.444Z,30.10
2024-01-24T19:01:02.948Z,33.85
2024-01-24T19:03:31.589Z,39.17
2024-01-24T19:05:58.992Z,45.85
2024-01-24T19:08:26.165Z,33.28
2024-01-24T19:10:54.448Z,46.83
2024-01-24T19:13:24.936Z,41.45
2024-01-24T19:15:51.805Z,41.80
2024-01-24T19:18:22.733Z,47.97
2024-01-24T19:20:53.230Z,31.95
2024-01-24T19:23:38.332Z,57.97
2024-01-24T19:26:16.036Z,32.95
2024-01-24T19:28:52.400Z,27.02
2024-01-24T19:31:28.484Z,47.40
2024-01-24T19:33:55.522Z,40.83
2024-01-24T19:36:23.930Z,35.78
2024-01-24T19:38:50.811Z,32.47
2024-01-24T19:41:18.225Z,33.85
2024-01-24T19:44:13.586Z,48.38
2024-01-24T19:46:52.782Z,42.85
2024-01-24T19:49:27.676Z,35.53
2024-01-24T19:51:56.289Z,54.95
2024-01-24T19:54:46.298Z,44.60
2024-01-24T19:57:25.914Z,40.38
2024-01-24T19:59:56.153Z,40.67
2024-01-24T20:03:04.968Z,35.45
2024-01-24T20:05:31.830Z,40.70
2024-01-24T20:08:00.397Z,32.70
2024-01-24T20:10:27.700Z,37.15
2024-01-24T20:12:54.910Z,51.88
2024-01-24T20:15:59.606Z,37.13
2024-01-24T20:18:47.068Z,38.63
2024-01-24T20:21:14.224Z,48.42
2024-01-24T20:23:46.031Z,39.90
2024-01-24T20:26:18.438Z,32.75
2024-01-24T20:29:25.566Z,24.35
2024-01-24T20:36:15.030Z,27.98
2024-01-24T20:38:55.782Z,39.60
2024-01-24T20:41:24.674Z,47.38
2024-01-24T20:43:51.852Z,52.30
2024-01-24T20:46:18.938Z,37.92
2024-01-24T20:48:46.189Z,39.05
2024-01-24T20:51:19.436Z,39.58
2024-01-24T20:53:49.577Z,45.70
2024-01-24T20:56:23.417Z,52.97
2024-01-24T20:58:58.289Z,35.60
2024-01-24T21:01:25.463Z,58.15
2024-01-24T21:03:54.145Z,39.97
2024-01-24T21:06:28.423Z,33.08
2024-01-24T21:09:24.441Z,54.85
2024-01-24T21:11:53.103Z,42.15
2024-01-24T21:14:47.042Z,55.47
2024-01-24T21:17:18.367Z,45.67
2024-01-24T21:19:55.853Z,45.63
2024-01-24T21:22:23.208Z,37.25
2024-01-24T21:24:53.405Z,62.90
2024-01-24T21:27:25.278Z,35.63
2024-01-24T21:29:52.178Z,50.38
2024-01-24T21:36:04.723Z,54.73
2024-01-24T21:38:32.501Z,52.40
2024-01-24T21:40:59.404Z,37.20
2024-01-24T21:43:27.644Z,57.45
2024-01-24T21:45:54.576Z,33.25
2024-01-24T21:48:21.521Z,35.40
2024-01-24T21:50:48.381Z,39.83
2024-01-24T21:53:15.263Z,38.33
2024-01-24T21:55:42.809Z,45.22
2024-01-24T21:58:09.682Z,61.25
2024-01-24T22:00:38.020Z,57.42
2024-01-24T22:03:05.507Z,39.33
2024-01-24T22:05:32.382Z,37.95
2024-01-24T22:07:59.973Z,59.20
2024-01-24T22:10:27.097Z,27.98
2024-01-24T22:12:56.000Z,43.30
2024-01-24T22:15:22.939Z,39.17
2024-01-24T22:17:51.250Z,70.65
2024-01-24T22:20:18.270Z,37.03
2024-01-24T22:22:45.181Z,48.00
2024-01-24T22:25:12.122Z,37.90
2024-01-24T22:27:39.111Z,53.28
2024-01-24T22:30:07.293Z,39.97
2024-01-24T22:32:34.526Z,46.25
2024-01-24T22:35:04.977Z,40.63
2024-01-24T22:37:31.975Z,53.20
2024-01-24T22:39:59.195Z,58.80
2024-01-24T22:42:26.207Z,45.50
2024-01-24T22:44:53.043Z,59.80
2024-01-24T22:47:20.756Z,35.58
2024-01-24T22:49:47.784Z,36.53
2024-01-24T22:52:16.428Z,32.53
2024-01-24T22:54:43.573Z,39.10
2024-01-24T22:57:10.571Z,46.90
2024-01-24T22:59:37.443Z,38.63
2024-01-24T23:02:04.957Z,38.10
2024-01-24T23:04:32.102Z,50.05
2024-01-24T23:06:59.374Z,44.10
2024-01-24T23:09:27.698Z,45.00
2024-01-24T23:11:54.652Z,26.67
2024-01-24T23:14:21.480Z,48.88
2024-01-24T23:16:48.312Z,38.97
2024-01-24T23:19:15.781Z,39.28
2024-01-24T23:21:42.946Z,41.90
2024-01-24T23:24:09.930Z,45.72
2024-01-24T23:26:38.764Z,45.58
2024-01-24T23:29:06.331Z,42.53
2024-01-24T23:31:33.211Z,31.13
2024-01-24T23:34:00.606Z,33.40
2024-01-24T23:36:27.678Z,31.35
2024-01-24T23:38:56.209Z,34.72
2024-01-24T23:41:23.972Z,39.08
2024-01-24T23:43:52.563Z,27.15
2024-01-24T23:46:19.573Z,35.90
2024-01-24T23:48:46.699Z,31.88
2024-01-24T23:51:14.206Z,25.58
2024-01-24T23:53:41.313Z,32.20
2024-01-24T23:56:08.344Z,38.58
2024-01-24T23:58:36.397Z,28.88
